sensor_id;sensor_type;location;lat;lon;timestamp;pressure;altitude;pressure_sealevel;temperature;humidity
15382;BME280;7789;51.364;12.358;2023-04-07T00:00:24;100573.03;;;6.30;52.68
15382;BME280;7789;51.364;12.358;2023-04-07T00:05:29;100570.50;;;6.28;52.89
15382;BME280;7789;51.364;12.358;2023-04-07T00:10:32;100568.22;;;6.24;52.65
15382;BME280;7789;51.364;12.358;2023-04-07T00:15:36;100571.06;;;6.19;52.94
15382;BME280;7789;51.364;12.358;2023-04-07T00:20:41;100555.97;;;6.12;53.03
15382;BME280;7789;51.364;12.358;2023-04-07T00:25:47;100556.06;;;6.10;53.03
15382;BME280;7789;51.364;12.358;2023-04-07T00:30:51;100563.22;;;6.07;53.30
15382;BME280;7789;51.364;12.358;2023-04-07T00:35:56;100549.84;;;5.99;53.74
15382;BME280;7789;51.364;12.358;2023-04-07T00:40:59;100544.94;;;5.94;53.95
15382;BME280;7789;51.364;12.358;2023-04-07T00:46:03;100545.22;;;5.90;53.65
15382;BME280;7789;51.364;12.358;2023-04-07T00:51:08;100542.97;;;5.84;54.11
15382;BME280;7789;51.364;12.358;2023-04-07T00:56:11;100546.00;;;5.76;54.73
15382;BME280;7789;51.364;12.358;2023-04-07T01:01:19;100540.34;;;5.70;54.49
15382;BME280;7789;51.364;12.358;2023-04-07T01:06:29;100526.00;;;5.64;55.04
15382;BME280;7789;51.364;12.358;2023-04-07T01:11:39;100535.72;;;5.61;55.07
15382;BME280;7789;51.364;12.358;2023-04-07T01:16:48;100524.78;;;5.56;55.08
15382;BME280;7789;51.364;12.358;2023-04-07T01:21:57;100525.78;;;5.53;55.17
15382;BME280;7789;51.364;12.358;2023-04-07T01:27:13;100520.59;;;5.53;55.63
15382;BME280;7789;51.364;12.358;2023-04-07T01:32:25;100523.38;;;5.50;55.13
15382;BME280;7789;51.364;12.358;2023-04-07T01:37:30;100519.19;;;5.48;55.28
15382;BME280;7789;51.364;12.358;2023-04-07T01:42:34;100516.59;;;5.48;55.31
15382;BME280;7789;51.364;12.358;2023-04-07T01:47:41;100505.56;;;5.44;55.54
15382;BME280;7789;51.364;12.358;2023-04-07T01:52:45;100506.78;;;5.39;55.74
15382;BME280;7789;51.364;12.358;2023-04-07T01:57:52;100511.22;;;5.37;55.78
15382;BME280;7789;51.364;12.358;2023-04-07T02:03:00;100512.31;;;5.33;55.94
15382;BME280;7789;51.364;12.358;2023-04-07T02:08:07;100511.81;;;5.27;56.33
15382;BME280;7789;51.364;12.358;2023-04-07T02:13:15;100506.94;;;5.22;56.38
15382;BME280;7789;51.364;12.358;2023-04-07T02:18:22;100503.75;;;5.17;56.43
15382;BME280;7789;51.364;12.358;2023-04-07T02:23:27;100508.31;;;5.14;56.85
15382;BME280;7789;51.364;12.358;2023-04-07T02:28:30;100499.94;;;5.09;57.21
15382;BME280;7789;51.364;12.358;2023-04-07T02:33:35;100499.47;;;5.02;57.13
15382;BME280;7789;51.364;12.358;2023-04-07T02:38:38;100504.75;;;5.01;57.15
15382;BME280;7789;51.364;12.358;2023-04-07T02:43:41;100495.38;;;4.98;57.59
15382;BME280;7789;51.364;12.358;2023-04-07T02:48:46;100496.13;;;5.00;57.51
15382;BME280;7789;51.364;12.358;2023-04-07T02:53:49;100494.31;;;5.02;57.86
15382;BME280;7789;51.364;12.358;2023-04-07T02:58:53;100492.44;;;5.04;57.93
15382;BME280;7789;51.364;12.358;2023-04-07T03:03:58;100499.31;;;5.05;58.10
15382;BME280;7789;51.364;12.358;2023-04-07T03:09:01;100496.78;;;5.04;57.31
15382;BME280;7789;51.364;12.358;2023-04-07T03:14:05;100487.41;;;5.01;58.21
15382;BME280;7789;51.364;12.358;2023-04-07T03:19:10;100491.84;;;4.99;58.05
15382;BME280;7789;51.364;12.358;2023-04-07T03:24:13;100487.59;;;4.98;58.20
15382;BME280;7789;51.364;12.358;2023-04-07T03:29:18;100486.78;;;4.98;58.10
15382;BME280;7789;51.364;12.358;2023-04-07T03:34:23;100487.72;;;4.97;58.07
15382;BME280;7789;51.364;12.358;2023-04-07T03:39:26;100490.63;;;4.91;58.61
15382;BME280;7789;51.364;12.358;2023-04-07T03:44:29;100490.00;;;4.87;58.87
15382;BME280;7789;51.364;12.358;2023-04-07T03:49:37;100483.47;;;4.80;59.10
15382;BME280;7789;51.364;12.358;2023-04-07T03:54:40;100474.41;;;4.73;58.59
15382;BME280;7789;51.364;12.358;2023-04-07T03:59:44;100483.34;;;4.68;59.14
15382;BME280;7789;51.364;12.358;2023-04-07T04:04:50;100486.28;;;4.62;58.88
15382;BME280;7789;51.364;12.358;2023-04-07T04:09:53;100498.63;;;4.57;59.40
15382;BME280;7789;51.364;12.358;2023-04-07T04:14:57;100489.47;;;4.51;59.42
15382;BME280;7789;51.364;12.358;2023-04-07T04:20:02;100489.53;;;4.50;59.99
15382;BME280;7789;51.364;12.358;2023-04-07T04:25:06;100490.63;;;4.46;60.32
15382;BME280;7789;51.364;12.358;2023-04-07T04:30:10;100489.88;;;4.44;60.10
15382;BME280;7789;51.364;12.358;2023-04-07T04:35:15;100487.28;;;4.44;59.89
15382;BME280;7789;51.364;12.358;2023-04-07T04:40:19;100480.59;;;4.40;60.54
15382;BME280;7789;51.364;12.358;2023-04-07T04:45:22;100493.81;;;4.35;60.93
15382;BME280;7789;51.364;12.358;2023-04-07T04:50:27;100496.47;;;4.34;60.77
15382;BME280;7789;51.364;12.358;2023-04-07T04:55:31;100490.44;;;4.33;61.17
15382;BME280;7789;51.364;12.358;2023-04-07T05:00:34;100493.81;;;4.35;60.91
15382;BME280;7789;51.364;12.358;2023-04-07T05:05:39;100502.03;;;4.42;61.42
15382;BME280;7789;51.364;12.358;2023-04-07T05:10:42;100494.88;;;4.47;61.16
15382;BME280;7789;51.364;12.358;2023-04-07T05:15:47;100491.28;;;4.49;60.80
15382;BME280;7789;51.364;12.358;2023-04-07T05:20:52;100492.28;;;4.62;60.99
15382;BME280;7789;51.364;12.358;2023-04-07T05:25:55;100496.78;;;4.74;60.48
15382;BME280;7789;51.364;12.358;2023-04-07T05:30:58;100503.19;;;4.83;60.64
15382;BME280;7789;51.364;12.358;2023-04-07T05:36:04;100505.41;;;4.89;60.37
15382;BME280;7789;51.364;12.358;2023-04-07T05:41:07;100507.56;;;4.96;60.29
15382;BME280;7789;51.364;12.358;2023-04-07T05:46:10;100506.22;;;5.05;59.87
15382;BME280;7789;51.364;12.358;2023-04-07T05:51:15;100507.28;;;5.16;59.92
15382;BME280;7789;51.364;12.358;2023-04-07T05:56:19;100503.63;;;5.34;60.09
15382;BME280;7789;51.364;12.358;2023-04-07T06:01:22;100509.97;;;5.58;59.23
15382;BME280;7789;51.364;12.358;2023-04-07T06:06:29;100516.22;;;5.97;58.28
15382;BME280;7789;51.364;12.358;2023-04-07T06:11:33;100514.28;;;7.08;56.43
15382;BME280;7789;51.364;12.358;2023-04-07T06:16:36;100509.16;;;8.56;54.01
15382;BME280;7789;51.364;12.358;2023-04-07T06:21:42;100507.53;;;10.04;50.49
15382;BME280;7789;51.364;12.358;2023-04-07T06:26:46;100502.53;;;11.18;49.33
15382;BME280;7789;51.364;12.358;2023-04-07T06:31:50;100507.22;;;12.36;46.93
15382;BME280;7789;51.364;12.358;2023-04-07T06:36:54;100501.31;;;13.76;43.69
15382;BME280;7789;51.364;12.358;2023-04-07T06:42:00;100489.97;;;14.76;42.23
15382;BME280;7789;51.364;12.358;2023-04-07T06:47:11;100488.91;;;15.03;38.80
15382;BME280;7789;51.364;12.358;2023-04-07T06:52:16;100499.34;;;14.61;40.53
15382;BME280;7789;51.364;12.358;2023-04-07T06:57:23;100497.69;;;14.33;40.46
15382;BME280;7789;51.364;12.358;2023-04-07T07:02:26;100506.06;;;14.73;39.07
15382;BME280;7789;51.364;12.358;2023-04-07T07:07:31;100502.53;;;14.64;39.24
15382;BME280;7789;51.364;12.358;2023-04-07T07:12:36;100494.38;;;14.31;39.54
15382;BME280;7789;51.364;12.358;2023-04-07T07:17:39;100501.47;;;14.21;39.66
15382;BME280;7789;51.364;12.358;2023-04-07T07:22:45;100510.19;;;14.75;38.72
15382;BME280;7789;51.364;12.358;2023-04-07T07:27:48;100509.50;;;14.56;38.85
15382;BME280;7789;51.364;12.358;2023-04-07T07:32:58;100512.34;;;14.62;38.92
15382;BME280;7789;51.364;12.358;2023-04-07T07:38:03;100512.63;;;15.03;38.84
15382;BME280;7789;51.364;12.358;2023-04-07T07:43:08;100511.88;;;15.46;37.98
15382;BME280;7789;51.364;12.358;2023-04-07T07:48:12;100514.44;;;16.89;35.74
15382;BME280;7789;51.364;12.358;2023-04-07T07:53:17;100513.47;;;17.94;34.03
15382;BME280;7789;51.364;12.358;2023-04-07T07:58:23;100519.00;;;17.60;34.23
15382;BME280;7789;51.364;12.358;2023-04-07T08:03:28;100506.63;;;19.45;32.56
15382;BME280;7789;51.364;12.358;2023-04-07T08:08:37;100519.72;;;18.93;32.64
15382;BME280;7789;51.364;12.358;2023-04-07T08:13:52;100516.13;;;18.56;32.01
15382;BME280;7789;51.364;12.358;2023-04-07T08:18:55;100524.94;;;17.70;32.83
15382;BME280;7789;51.364;12.358;2023-04-07T08:24:00;100528.59;;;17.37;32.70
15382;BME280;7789;51.364;12.358;2023-04-07T08:29:05;100533.81;;;17.29;32.60
15382;BME280;7789;51.364;12.358;2023-04-07T08:34:09;100531.16;;;17.05;32.99
15382;BME280;7789;51.364;12.358;2023-04-07T08:39:13;100548.06;;;16.71;32.28
15382;BME280;7789;51.364;12.358;2023-04-07T08:44:20;100544.94;;;16.76;32.45
15382;BME280;7789;51.364;12.358;2023-04-07T08:49:29;100533.19;;;16.62;32.68
15382;BME280;7789;51.364;12.358;2023-04-07T08:54:37;100530.44;;;16.72;33.55
15382;BME280;7789;51.364;12.358;2023-04-07T08:59:44;100539.28;;;16.63;33.83
15382;BME280;7789;51.364;12.358;2023-04-07T09:04:49;100546.81;;;16.42;33.20
15382;BME280;7789;51.364;12.358;2023-04-07T09:09:57;100551.09;;;16.43;32.90
15382;BME280;7789;51.364;12.358;2023-04-07T09:15:02;100545.09;;;16.07;33.27
15382;BME280;7789;51.364;12.358;2023-04-07T09:20:09;100534.03;;;16.04;32.89
15382;BME280;7789;51.364;12.358;2023-04-07T09:25:15;100548.78;;;15.89;33.34
15382;BME280;7789;51.364;12.358;2023-04-07T09:30:22;100537.44;;;16.22;33.48
15382;BME280;7789;51.364;12.358;2023-04-07T09:35:26;100532.97;;;16.22;32.36
15382;BME280;7789;51.364;12.358;2023-04-07T09:40:35;100530.88;;;16.34;32.36
15382;BME280;7789;51.364;12.358;2023-04-07T09:45:39;100525.72;;;16.24;32.91
15382;BME280;7789;51.364;12.358;2023-04-07T09:50:43;100531.69;;;16.26;33.24
15382;BME280;7789;51.364;12.358;2023-04-07T09:55:52;100512.34;;;16.51;33.38
15382;BME280;7789;51.364;12.358;2023-04-07T10:00:57;100505.50;;;16.74;33.58
15382;BME280;7789;51.364;12.358;2023-04-07T10:06:01;100509.13;;;16.73;34.16
15382;BME280;7789;51.364;12.358;2023-04-07T10:11:09;100510.91;;;16.57;34.29
15382;BME280;7789;51.364;12.358;2023-04-07T10:16:12;100510.91;;;16.65;34.13
15382;BME280;7789;51.364;12.358;2023-04-07T10:21:20;100509.19;;;16.40;35.43
15382;BME280;7789;51.364;12.358;2023-04-07T10:26:32;100513.50;;;16.49;35.03
15382;BME280;7789;51.364;12.358;2023-04-07T10:31:38;100512.72;;;16.23;34.48
15382;BME280;7789;51.364;12.358;2023-04-07T10:37:10;100512.50;;;16.16;35.01
15382;BME280;7789;51.364;12.358;2023-04-07T10:48:11;100498.66;;;16.22;35.10
15382;BME280;7789;51.364;12.358;2023-04-07T10:53:19;100518.00;;;15.97;34.01
15382;BME280;7789;51.364;12.358;2023-04-07T10:58:23;100510.69;;;15.66;34.34
15382;BME280;7789;51.364;12.358;2023-04-07T11:03:31;100504.63;;;15.91;34.05
15382;BME280;7789;51.364;12.358;2023-04-07T11:08:36;100512.28;;;15.76;34.19
15382;BME280;7789;51.364;12.358;2023-04-07T11:13:44;100510.13;;;15.80;34.85
15382;BME280;7789;51.364;12.358;2023-04-07T11:18:56;100510.09;;;15.72;34.66
15382;BME280;7789;51.364;12.358;2023-04-07T11:24:02;100503.72;;;15.57;34.58
15382;BME280;7789;51.364;12.358;2023-04-07T11:29:06;100505.03;;;15.35;35.67
15382;BME280;7789;51.364;12.358;2023-04-07T11:34:19;100501.19;;;15.47;34.99
15382;BME280;7789;51.364;12.358;2023-04-07T11:39:23;100502.16;;;15.46;35.04
15382;BME280;7789;51.364;12.358;2023-04-07T11:44:29;100515.56;;;15.53;35.49
15382;BME280;7789;51.364;12.358;2023-04-07T11:49:47;100513.91;;;15.52;34.42
15382;BME280;7789;51.364;12.358;2023-04-07T11:54:50;100504.31;;;15.68;34.35
15382;BME280;7789;51.364;12.358;2023-04-07T12:00:04;100510.50;;;15.59;34.15
15382;BME280;7789;51.364;12.358;2023-04-07T12:05:09;100516.56;;;15.34;33.67
15382;BME280;7789;51.364;12.358;2023-04-07T12:10:17;100501.00;;;15.49;34.13
15382;BME280;7789;51.364;12.358;2023-04-07T12:15:21;100506.03;;;15.77;34.11
15382;BME280;7789;51.364;12.358;2023-04-07T12:20:34;100511.69;;;15.65;34.01
15382;BME280;7789;51.364;12.358;2023-04-07T12:25:41;100500.06;;;15.32;34.09
15382;BME280;7789;51.364;12.358;2023-04-07T12:30:44;100497.44;;;15.32;34.87
15382;BME280;7789;51.364;12.358;2023-04-07T12:35:51;100503.44;;;15.25;34.89
15382;BME280;7789;51.364;12.358;2023-04-07T12:40:54;100496.91;;;15.11;34.97
15382;BME280;7789;51.364;12.358;2023-04-07T12:46:04;100500.13;;;15.23;35.04
15382;BME280;7789;51.364;12.358;2023-04-07T12:51:10;100497.56;;;15.13;35.00
15382;BME280;7789;51.364;12.358;2023-04-07T12:56:13;100492.44;;;15.12;35.52
15382;BME280;7789;51.364;12.358;2023-04-07T13:01:16;100492.19;;;15.15;35.20
15382;BME280;7789;51.364;12.358;2023-04-07T13:06:25;100493.59;;;15.09;35.17
15382;BME280;7789;51.364;12.358;2023-04-07T13:11:28;100489.69;;;15.13;35.84
15382;BME280;7789;51.364;12.358;2023-04-07T13:16:32;100497.50;;;15.05;36.11
15382;BME280;7789;51.364;12.358;2023-04-07T13:21:37;100489.53;;;14.97;35.53
15382;BME280;7789;51.364;12.358;2023-04-07T13:26:51;100490.13;;;14.91;36.16
15382;BME280;7789;51.364;12.358;2023-04-07T13:32:04;100493.19;;;14.70;35.99
15382;BME280;7789;51.364;12.358;2023-04-07T13:37:10;100481.25;;;14.75;36.67
15382;BME280;7789;51.364;12.358;2023-04-07T13:42:19;100483.06;;;14.75;36.37
15382;BME280;7789;51.364;12.358;2023-04-07T13:47:23;100481.59;;;14.80;36.79
15382;BME280;7789;51.364;12.358;2023-04-07T13:52:32;100468.47;;;14.97;37.19
15382;BME280;7789;51.364;12.358;2023-04-07T13:57:36;100467.53;;;15.24;36.81
15382;BME280;7789;51.364;12.358;2023-04-07T14:02:40;100460.25;;;15.35;36.87
15382;BME280;7789;51.364;12.358;2023-04-07T14:07:48;100458.78;;;15.33;36.75
15382;BME280;7789;51.364;12.358;2023-04-07T14:12:53;100463.56;;;15.20;36.55
15382;BME280;7789;51.364;12.358;2023-04-07T14:17:59;100468.84;;;15.20;36.64
15382;BME280;7789;51.364;12.358;2023-04-07T14:23:04;100464.94;;;14.89;36.10
15382;BME280;7789;51.364;12.358;2023-04-07T14:28:11;100470.47;;;14.69;36.61
15382;BME280;7789;51.364;12.358;2023-04-07T14:33:14;100471.63;;;14.39;36.79
15382;BME280;7789;51.364;12.358;2023-04-07T14:38:23;100469.66;;;14.24;37.21
15382;BME280;7789;51.364;12.358;2023-04-07T14:43:32;100471.59;;;14.12;36.85
15382;BME280;7789;51.364;12.358;2023-04-07T14:48:36;100469.72;;;14.05;36.70
15382;BME280;7789;51.364;12.358;2023-04-07T14:53:43;100462.81;;;13.94;37.05
15382;BME280;7789;51.364;12.358;2023-04-07T14:58:50;100466.91;;;13.79;37.34
15382;BME280;7789;51.364;12.358;2023-04-07T15:03:53;100465.00;;;13.72;38.05
15382;BME280;7789;51.364;12.358;2023-04-07T15:09:07;100464.19;;;13.62;38.37
15382;BME280;7789;51.364;12.358;2023-04-07T15:14:11;100471.69;;;13.47;38.32
15382;BME280;7789;51.364;12.358;2023-04-07T15:19:17;100478.88;;;13.45;38.85
15382;BME280;7789;51.364;12.358;2023-04-07T15:24:22;100475.00;;;13.40;38.25
15382;BME280;7789;51.364;12.358;2023-04-07T15:29:27;100479.97;;;13.43;38.16
15382;BME280;7789;51.364;12.358;2023-04-07T15:34:31;100466.84;;;13.43;37.62
15382;BME280;7789;51.364;12.358;2023-04-07T15:39:46;100479.69;;;13.46;37.55
15382;BME280;7789;51.364;12.358;2023-04-07T15:44:50;100476.50;;;13.52;37.92
15382;BME280;7789;51.364;12.358;2023-04-07T15:49:53;100477.03;;;13.65;38.05
15382;BME280;7789;51.364;12.358;2023-04-07T15:54:59;100479.78;;;13.73;37.79
15382;BME280;7789;51.364;12.358;2023-04-07T16:00:03;100472.41;;;13.76;37.98
15382;BME280;7789;51.364;12.358;2023-04-07T16:05:09;100476.69;;;13.77;39.09
15382;BME280;7789;51.364;12.358;2023-04-07T16:10:14;100489.84;;;13.77;38.44
15382;BME280;7789;51.364;12.358;2023-04-07T16:15:21;100483.50;;;13.70;39.00
15382;BME280;7789;51.364;12.358;2023-04-07T16:20:43;100485.59;;;13.67;38.92
15382;BME280;7789;51.364;12.358;2023-04-07T16:25:48;100485.06;;;13.63;38.94
15382;BME280;7789;51.364;12.358;2023-04-07T16:30:54;100495.03;;;13.50;39.15
15382;BME280;7789;51.364;12.358;2023-04-07T16:35:57;100502.50;;;13.45;39.71
15382;BME280;7789;51.364;12.358;2023-04-07T16:41:05;100508.19;;;13.41;40.37
15382;BME280;7789;51.364;12.358;2023-04-07T16:46:09;100522.28;;;13.21;41.49
15382;BME280;7789;51.364;12.358;2023-04-07T16:51:22;100531.59;;;12.86;40.98
15382;BME280;7789;51.364;12.358;2023-04-07T16:56:29;100539.44;;;12.67;40.61
15382;BME280;7789;51.364;12.358;2023-04-07T17:01:35;100544.22;;;12.43;40.75
15382;BME280;7789;51.364;12.358;2023-04-07T17:06:43;100547.69;;;12.23;40.25
15382;BME280;7789;51.364;12.358;2023-04-07T17:11:49;100550.69;;;12.09;40.52
15382;BME280;7789;51.364;12.358;2023-04-07T17:16:53;100556.97;;;11.97;41.04
15382;BME280;7789;51.364;12.358;2023-04-07T17:21:57;100567.88;;;11.81;41.26
15382;BME280;7789;51.364;12.358;2023-04-07T17:27:02;100571.66;;;11.68;41.69
15382;BME280;7789;51.364;12.358;2023-04-07T17:32:06;100578.81;;;11.55;41.98
15382;BME280;7789;51.364;12.358;2023-04-07T17:37:09;100593.31;;;11.38;42.07
15382;BME280;7789;51.364;12.358;2023-04-07T17:42:16;100599.91;;;11.22;41.42
15382;BME280;7789;51.364;12.358;2023-04-07T17:47:19;100607.22;;;11.07;41.51
15382;BME280;7789;51.364;12.358;2023-04-07T17:52:24;100613.41;;;10.96;42.31
15382;BME280;7789;51.364;12.358;2023-04-07T17:57:31;100615.09;;;10.86;42.39
15382;BME280;7789;51.364;12.358;2023-04-07T18:02:37;100621.53;;;10.71;43.39
15382;BME280;7789;51.364;12.358;2023-04-07T18:07:42;100620.13;;;10.67;43.42
15382;BME280;7789;51.364;12.358;2023-04-07T18:12:47;100642.94;;;10.54;44.18
15382;BME280;7789;51.364;12.358;2023-04-07T18:17:50;100646.38;;;10.43;44.14
15382;BME280;7789;51.364;12.358;2023-04-07T18:22:55;100648.16;;;10.32;44.93
15382;BME280;7789;51.364;12.358;2023-04-07T18:28:01;100651.34;;;10.24;46.05
15382;BME280;7789;51.364;12.358;2023-04-07T18:33:13;100663.75;;;10.10;46.16
15382;BME280;7789;51.364;12.358;2023-04-07T18:38:17;100668.72;;;10.02;46.53
15382;BME280;7789;51.364;12.358;2023-04-07T18:43:21;100671.78;;;9.96;47.92
15382;BME280;7789;51.364;12.358;2023-04-07T18:48:25;100686.44;;;9.86;48.37
15382;BME280;7789;51.364;12.358;2023-04-07T18:53:36;100691.63;;;9.75;49.76
15382;BME280;7789;51.364;12.358;2023-04-07T18:58:42;100693.97;;;9.67;51.49
15382;BME280;7789;51.364;12.358;2023-04-07T19:03:46;100703.91;;;9.62;52.66
15382;BME280;7789;51.364;12.358;2023-04-07T19:08:50;100695.56;;;9.57;55.08
15382;BME280;7789;51.364;12.358;2023-04-07T19:13:57;100708.34;;;9.49;57.59
15382;BME280;7789;51.364;12.358;2023-04-07T19:19:01;100706.50;;;9.38;59.64
15382;BME280;7789;51.364;12.358;2023-04-07T19:24:08;100714.66;;;9.34;60.69
15382;BME280;7789;51.364;12.358;2023-04-07T19:29:13;100704.44;;;9.31;63.79
15382;BME280;7789;51.364;12.358;2023-04-07T19:34:18;100720.31;;;9.28;65.01
15382;BME280;7789;51.364;12.358;2023-04-07T19:39:21;100725.97;;;9.22;67.70
15382;BME280;7789;51.364;12.358;2023-04-07T19:44:27;100727.34;;;9.15;70.47
15382;BME280;7789;51.364;12.358;2023-04-07T19:49:31;100736.19;;;9.13;71.62
15382;BME280;7789;51.364;12.358;2023-04-07T19:54:35;100730.78;;;9.03;73.26
15382;BME280;7789;51.364;12.358;2023-04-07T19:59:39;100732.91;;;8.98;74.13
15382;BME280;7789;51.364;12.358;2023-04-07T20:04:43;100734.97;;;8.93;74.96
15382;BME280;7789;51.364;12.358;2023-04-07T20:09:46;100738.22;;;8.84;76.49
15382;BME280;7789;51.364;12.358;2023-04-07T20:14:52;100744.69;;;8.79;79.01
15382;BME280;7789;51.364;12.358;2023-04-07T20:19:56;100747.94;;;8.70;79.80
15382;BME280;7789;51.364;12.358;2023-04-07T20:24:59;100755.84;;;8.68;81.01
15382;BME280;7789;51.364;12.358;2023-04-07T20:30:07;100761.06;;;8.68;82.01
15382;BME280;7789;51.364;12.358;2023-04-07T20:35:11;100759.28;;;8.56;82.43
15382;BME280;7789;51.364;12.358;2023-04-07T20:40:14;100761.28;;;8.53;83.86
15382;BME280;7789;51.364;12.358;2023-04-07T20:45:20;100761.78;;;8.45;85.67
15382;BME280;7789;51.364;12.358;2023-04-07T20:50:23;100759.69;;;8.38;85.78
15382;BME280;7789;51.364;12.358;2023-04-07T20:55:26;100755.91;;;8.29;86.16
15382;BME280;7789;51.364;12.358;2023-04-07T21:00:32;100757.16;;;8.36;87.90
15382;BME280;7789;51.364;12.358;2023-04-07T21:05:37;100764.97;;;8.36;88.25
15382;BME280;7789;51.364;12.358;2023-04-07T21:10:41;100763.97;;;8.39;88.19
15382;BME280;7789;51.364;12.358;2023-04-07T21:15:45;100759.28;;;8.44;89.62
15382;BME280;7789;51.364;12.358;2023-04-07T21:20:49;100756.75;;;8.42;88.89
15382;BME280;7789;51.364;12.358;2023-04-07T21:25:52;100758.75;;;8.39;90.14
15382;BME280;7789;51.364;12.358;2023-04-07T21:30:57;100750.19;;;8.37;90.30
15382;BME280;7789;51.364;12.358;2023-04-07T21:36:00;100749.88;;;8.29;91.57
15382;BME280;7789;51.364;12.358;2023-04-07T21:41:04;100756.00;;;8.28;92.51
15382;BME280;7789;51.364;12.358;2023-04-07T21:46:09;100747.16;;;8.30;94.05
15382;BME280;7789;51.364;12.358;2023-04-07T21:51:14;100753.63;;;8.25;95.04
15382;BME280;7789;51.364;12.358;2023-04-07T21:56:18;100757.97;;;8.24;94.82
15382;BME280;7789;51.364;12.358;2023-04-07T22:01:24;100746.81;;;8.22;96.16
15382;BME280;7789;51.364;12.358;2023-04-07T22:06:27;100744.34;;;8.21;96.40
15382;BME280;7789;51.364;12.358;2023-04-07T22:11:32;100748.69;;;8.20;97.51
15382;BME280;7789;51.364;12.358;2023-04-07T22:16:41;100748.81;;;8.19;98.24
15382;BME280;7789;51.364;12.358;2023-04-07T22:21:49;100755.78;;;8.18;98.46
15382;BME280;7789;51.364;12.358;2023-04-07T22:26:53;100752.16;;;8.21;99.05
15382;BME280;7789;51.364;12.358;2023-04-07T22:31:59;100750.50;;;8.20;99.65
15382;BME280;7789;51.364;12.358;2023-04-07T22:37:02;100754.09;;;8.17;99.54
15382;BME280;7789;51.364;12.358;2023-04-07T22:42:06;100755.03;;;8.16;99.42
15382;BME280;7789;51.364;12.358;2023-04-07T22:47:11;100755.03;;;8.16;100.00
15382;BME280;7789;51.364;12.358;2023-04-07T22:52:14;100769.06;;;8.14;100.00
15382;BME280;7789;51.364;12.358;2023-04-07T22:57:17;100763.13;;;8.12;100.00
15382;BME280;7789;51.364;12.358;2023-04-07T23:02:23;100777.19;;;8.09;100.00
15382;BME280;7789;51.364;12.358;2023-04-07T23:07:26;100770.50;;;8.05;100.00
15382;BME280;7789;51.364;12.358;2023-04-07T23:12:29;100774.97;;;8.03;100.00
15382;BME280;7789;51.364;12.358;2023-04-07T23:17:34;100782.56;;;8.06;100.00
15382;BME280;7789;51.364;12.358;2023-04-07T23:22:37;100778.31;;;8.05;100.00
15382;BME280;7789;51.364;12.358;2023-04-07T23:27:41;100771.94;;;7.97;100.00
15382;BME280;7789;51.364;12.358;2023-04-07T23:32:46;100769.03;;;8.01;100.00
15382;BME280;7789;51.364;12.358;2023-04-07T23:37:49;100767.16;;;8.03;100.00
15382;BME280;7789;51.364;12.358;2023-04-07T23:42:53;100766.50;;;8.00;100.00
15382;BME280;7789;51.364;12.358;2023-04-07T23:47:59;100766.34;;;8.03;100.00
15382;BME280;7789;51.364;12.358;2023-04-07T23:53:02;100763.63;;;8.04;100.00
15382;BME280;7789;51.364;12.358;2023-04-07T23:58:06;100764.03;;;7.98;100.00
